createdAt,value
2022-08-26T00:05:18.709Z,13.02
2022-08-26T00:07:45.539Z,12.63
2022-08-26T00:10:12.438Z,12.15
2022-08-26T00:12:40.764Z,12.77
2022-08-26T00:15:10.602Z,12.10
2022-08-26T00:17:37.675Z,12.90
2022-08-26T00:20:10.731Z,13.38
2022-08-26T00:22:38.584Z,12.48
2022-08-26T00:25:07.691Z,12.50
2022-08-26T00:27:36.470Z,12.55
2022-08-26T00:30:11.409Z,11.93
2022-08-26T00:32:38.244Z,12.13
2022-08-26T00:35:07.850Z,13.23
2022-08-26T00:37:34.872Z,12.27
2022-08-26T00:40:05.181Z,12.80
2022-08-26T00:42:32.257Z,13.82
2022-08-26T00:44:59.207Z,13.73
2022-08-26T00:47:35.505Z,14.15
2022-08-26T00:50:10.739Z,12.63
2022-08-26T00:52:38.164Z,13.73
2022-08-26T00:55:22.239Z,14.27
2022-08-26T00:57:51.603Z,14.98
2022-08-26T01:00:23.301Z,14.98
2022-08-26T01:02:50.641Z,15.18
2022-08-26T01:05:19.296Z,15.50
2022-08-26T01:07:47.238Z,14.98
2022-08-26T01:10:21.161Z,14.38
2022-08-26T01:12:52.513Z,13.45
2022-08-26T01:15:24.956Z,14.00
2022-08-26T01:17:52.110Z,14.27
2022-08-26T01:20:35.472Z,13.75
2022-08-26T01:23:06.709Z,14.60
2022-08-26T01:25:40.743Z,14.68
2022-08-26T01:28:14.830Z,14.05
2022-08-26T01:30:45.497Z,14.95
2022-08-26T01:33:17.593Z,14.77
2022-08-26T01:35:45.311Z,14.73
2022-08-26T01:38:12.869Z,14.77
2022-08-26T01:40:43.637Z,15.52
2022-08-26T01:43:16.937Z,16.33
2022-08-26T01:45:46.050Z,16.33
2022-08-26T01:48:19.406Z,16.30
2022-08-26T01:53:17.805Z,15.20
2022-08-26T01:55:49.109Z,16.48
2022-08-26T02:00:48.586Z,16.17
2022-08-26T02:03:18.405Z,15.73
2022-08-26T02:05:51.412Z,15.35
2022-08-26T02:08:24.810Z,14.93
2022-08-26T02:10:54.646Z,14.60
2022-08-26T02:13:23.154Z,16.38
2022-08-26T02:15:52.410Z,15.82
2022-08-26T02:18:19.585Z,14.60
2022-08-26T02:20:46.387Z,15.27
2022-08-26T02:23:18.369Z,14.65
2022-08-26T02:25:52.899Z,15.30
2022-08-26T02:28:19.857Z,15.02
2022-08-26T02:30:47.464Z,15.88
2022-08-26T02:33:14.672Z,15.18
2022-08-26T02:35:41.942Z,15.15
2022-08-26T02:38:11.209Z,14.45
2022-08-26T02:40:41.157Z,15.38
2022-08-26T02:43:09.613Z,13.50
2022-08-26T02:45:36.701Z,14.88
2022-08-26T02:48:10.929Z,13.50
2022-08-26T02:50:38.701Z,13.75
2022-08-26T02:53:06.986Z,13.75
2022-08-26T02:55:34.055Z,13.85
2022-08-26T02:58:01.555Z,13.23
2022-08-26T03:00:29.990Z,14.23
2022-08-26T03:02:58.299Z,14.10
2022-08-26T03:05:25.667Z,13.55
2022-08-26T03:07:52.868Z,13.32
2022-08-26T03:10:21.315Z,13.38
2022-08-26T03:12:48.742Z,12.85
2022-08-26T03:15:18.542Z,11.60
2022-08-26T03:17:48.369Z,12.70
2022-08-26T03:20:17.510Z,12.45
2022-08-26T03:22:45.292Z,13.15
2022-08-26T03:25:14.635Z,13.02
2022-08-26T03:27:41.720Z,13.70
2022-08-26T03:30:30.646Z,13.05
2022-08-26T03:32:57.637Z,13.02
2022-08-26T03:35:25.726Z,14.80
2022-08-26T03:37:53.899Z,14.35
2022-08-26T03:40:21.481Z,14.32
2022-08-26T03:42:49.682Z,15.07
2022-08-26T03:45:19.129Z,14.23
2022-08-26T03:47:47.673Z,14.88
2022-08-26T03:50:22.900Z,15.52
2022-08-26T03:52:53.689Z,15.02
2022-08-26T03:55:24.761Z,17.42
2022-08-26T03:57:52.298Z,16.13
2022-08-26T04:00:20.657Z,17.40
2022-08-26T04:02:53.192Z,17.55
2022-08-26T04:05:21.874Z,15.68
2022-08-26T04:07:49.904Z,17.45
2022-08-26T04:10:20.237Z,17.25
2022-08-26T04:12:47.746Z,17.02
2022-08-26T04:15:16.476Z,21.17
2022-08-26T04:17:45.427Z,21.85
2022-08-26T04:20:18.169Z,18.50
2022-08-26T04:22:46.043Z,16.30
2022-08-26T04:25:13.442Z,16.88
2022-08-26T04:27:40.329Z,17.50
2022-08-26T04:30:09.607Z,18.20
2022-08-26T04:32:37.544Z,17.70
2022-08-26T04:35:05.590Z,17.83
2022-08-26T04:37:33.741Z,18.65
2022-08-26T04:40:00.601Z,17.65
2022-08-26T04:42:27.409Z,17.67
2022-08-26T04:44:55.469Z,17.33
2022-08-26T04:47:22.242Z,16.73
2022-08-26T04:49:48.978Z,17.00
2022-08-26T04:52:17.183Z,16.95
2022-08-26T04:54:43.906Z,15.23
2022-08-26T04:57:10.600Z,15.82
2022-08-26T04:59:39.468Z,14.00
2022-08-26T05:02:07.137Z,15.95
2022-08-26T05:04:34.523Z,15.82
2022-08-26T05:07:03.056Z,14.98
2022-08-26T05:09:29.942Z,14.32
2022-08-26T05:11:57.641Z,14.40
2022-08-26T05:14:24.432Z,13.68
2022-08-26T05:16:52.287Z,13.90
2022-08-26T05:19:19.594Z,13.45
2022-08-26T05:21:47.949Z,13.68
2022-08-26T05:24:16.148Z,12.00
2022-08-26T05:26:44.799Z,12.95
2022-08-26T05:29:11.958Z,13.35
2022-08-26T05:31:38.904Z,13.38
2022-08-26T05:34:06.149Z,13.48
2022-08-26T05:36:35.573Z,13.20
2022-08-26T05:39:03.988Z,12.82
2022-08-26T05:41:36.431Z,13.65
2022-08-26T05:44:06.354Z,14.35
2022-08-26T05:46:33.882Z,12.77
2022-08-26T05:49:01.642Z,13.27
2022-08-26T05:51:30.503Z,12.07
2022-08-26T05:53:58.338Z,12.10
2022-08-26T05:56:27.683Z,13.15
2022-08-26T05:58:56.461Z,13.23
2022-08-26T06:01:27.880Z,11.65
2022-08-26T06:04:01.894Z,12.60
2022-08-26T06:06:33.139Z,12.45
2022-08-26T06:09:03.864Z,12.20
2022-08-26T06:11:32.631Z,12.15
2022-08-26T06:14:04.344Z,13.02
2022-08-26T06:16:34.824Z,11.55
2022-08-26T06:19:03.231Z,11.73
2022-08-26T06:21:33.287Z,11.52
2022-08-26T06:24:21.512Z,11.27
2022-08-26T06:26:57.001Z,11.38
2022-08-26T06:29:25.943Z,11.30
2022-08-26T06:31:56.938Z,10.52
2022-08-26T06:34:26.674Z,10.32
2022-08-26T06:36:58.780Z,9.35
2022-08-26T06:39:25.715Z,8.77
2022-08-26T06:41:52.583Z,8.68
2022-08-26T06:44:19.937Z,8.98
2022-08-26T06:46:50.486Z,8.65
2022-08-26T06:49:18.309Z,8.32
2022-08-26T06:51:52.836Z,8.90
2022-08-26T06:54:19.547Z,7.40
2022-08-26T06:56:46.551Z,7.97
2022-08-26T06:59:15.541Z,8.02
2022-08-26T07:01:46.881Z,8.10
2022-08-26T07:04:20.103Z,8.45
2022-08-26T07:06:52.860Z,8.63
2022-08-26T07:09:22.834Z,7.88
2022-08-26T07:11:51.463Z,7.35
2022-08-26T07:14:19.313Z,7.28
2022-08-26T07:16:48.449Z,8.20
2022-08-26T07:19:16.744Z,7.65
2022-08-26T07:21:44.240Z,7.18
2022-08-26T07:24:12.160Z,7.43
2022-08-26T07:26:42.857Z,7.20
2022-08-26T07:29:12.694Z,7.30
2022-08-26T07:31:43.017Z,7.37
2022-08-26T07:36:38.290Z,6.97
2022-08-26T07:39:05.951Z,6.45
2022-08-26T07:41:33.601Z,6.00
2022-08-26T07:44:00.870Z,6.70
2022-08-26T07:46:30.444Z,6.18
2022-08-26T07:48:58.107Z,6.83
2022-08-26T07:51:25.435Z,6.35
2022-08-26T07:53:53.376Z,6.93
2022-08-26T07:56:23.339Z,6.82
2022-08-26T07:58:53.529Z,6.55
2022-08-26T08:01:23.761Z,6.30
2022-08-26T08:03:52.471Z,7.38
2022-08-26T08:06:27.372Z,6.20
2022-08-26T08:08:56.429Z,7.40
2022-08-26T08:11:24.274Z,7.32
2022-08-26T08:13:56.429Z,6.68
2022-08-26T08:16:32.237Z,7.07
2022-08-26T08:19:00.279Z,6.90
2022-08-26T08:21:29.009Z,6.65
2022-08-26T08:23:57.510Z,6.20
2022-08-26T08:26:25.856Z,6.50
2022-08-26T08:28:57.506Z,6.15
2022-08-26T08:31:55.839Z,6.05
2022-08-26T08:34:15.380Z,6.63
2022-08-26T08:36:42.301Z,6.30
2022-08-26T08:39:09.504Z,5.40
2022-08-26T08:41:54.799Z,6.05
2022-08-26T08:46:59.296Z,6.75
2022-08-26T08:49:27.645Z,5.03
2022-08-26T08:51:55.988Z,4.93
2022-08-26T08:54:23.394Z,5.38
2022-08-26T08:56:53.308Z,5.60
2022-08-26T08:59:31.222Z,5.43
2022-08-26T09:02:06.789Z,6.10
2022-08-26T09:05:16.924Z,5.93
2022-08-26T09:07:50.258Z,5.53
2022-08-26T09:10:32.742Z,5.72
2022-08-26T09:13:01.257Z,4.97
2022-08-26T09:15:44.722Z,5.18
2022-08-26T09:18:22.741Z,5.47
2022-08-26T09:20:56.183Z,4.95
2022-08-26T09:23:23.149Z,5.70
2022-08-26T09:25:59.674Z,6.05
2022-08-26T09:28:28.654Z,5.43
2022-08-26T09:31:03.506Z,5.07
2022-08-26T09:33:33.356Z,4.65
2022-08-26T09:36:13.949Z,5.47
2022-08-26T09:38:42.099Z,4.87
2022-08-26T09:41:22.433Z,5.38
2022-08-26T09:44:18.417Z,5.45
2022-08-26T09:46:54.374Z,5.00
2022-08-26T09:49:32.712Z,5.60
2022-08-26T09:52:22.350Z,4.70
2022-08-26T09:55:22.833Z,5.60
2022-08-26T09:57:53.035Z,5.32
2022-08-26T10:00:41.497Z,4.90
2022-08-26T10:03:24.267Z,5.20
2022-08-26T10:06:00.595Z,4.78
2022-08-26T10:08:34.982Z,4.85
2022-08-26T10:11:05.958Z,4.75
2022-08-26T10:13:41.237Z,4.93
2022-08-26T10:16:47.050Z,5.28
2022-08-26T10:19:19.488Z,4.50
2022-08-26T10:22:18.721Z,4.50
2022-08-26T10:24:54.490Z,5.28
2022-08-26T10:27:30.652Z,5.00
2022-08-26T10:30:04.234Z,5.07
2022-08-26T10:32:50.686Z,4.88
2022-08-26T10:35:19.499Z,5.93
2022-08-26T10:37:51.452Z,4.95
2022-08-26T10:40:37.978Z,5.03
2022-08-26T10:43:30.955Z,4.63
2022-08-26T10:46:10.346Z,5.00
2022-08-26T10:49:06.680Z,4.22
2022-08-26T10:51:42.257Z,4.30
2022-08-26T10:54:17.319Z,4.45
2022-08-26T10:57:13.958Z,5.38
2022-08-26T11:00:27.583Z,4.60
2022-08-26T11:03:03.398Z,4.72
2022-08-26T11:05:30.422Z,4.70
2022-08-26T11:08:17.422Z,4.55
2022-08-26T11:10:57.958Z,4.32
2022-08-26T11:14:02.651Z,4.63
2022-08-26T11:16:52.156Z,5.10
2022-08-26T11:19:59.672Z,5.07
2022-08-26T11:22:47.585Z,5.32
2022-08-26T11:25:19.756Z,5.22
2022-08-26T11:27:50.889Z,5.43
2022-08-26T11:30:19.791Z,4.35
2022-08-26T11:32:53.226Z,4.55
2022-08-26T11:35:19.904Z,5.32
2022-08-26T11:38:18.173Z,4.97
2022-08-26T11:40:45.468Z,4.63
2022-08-26T11:43:24.300Z,4.93
2022-08-26T11:46:10.691Z,4.45
2022-08-26T11:48:43.120Z,4.60
2022-08-26T11:51:22.816Z,4.72
2022-08-26T11:53:51.339Z,4.80
2022-08-26T11:56:31.617Z,4.65
2022-08-26T11:59:01.380Z,4.38
2022-08-26T12:01:38.468Z,4.78
2022-08-26T12:04:09.521Z,4.13
2022-08-26T12:09:22.612Z,4.13
2022-08-26T12:11:49.869Z,4.75
2022-08-26T12:14:24.567Z,4.95
2022-08-26T12:16:54.385Z,4.43
2022-08-26T12:19:27.464Z,5.10
2022-08-26T12:22:17.885Z,3.97
2022-08-26T12:24:56.092Z,4.28
2022-08-26T12:27:26.208Z,4.32
2022-08-26T12:30:14.037Z,3.60
2022-08-26T12:32:58.007Z,3.97
2022-08-26T12:35:27.023Z,4.95
2022-08-26T12:37:54.823Z,4.60
2022-08-26T12:40:27.469Z,4.55
2022-08-26T12:42:55.224Z,4.18
2022-08-26T12:45:36.364Z,3.53
2022-08-26T12:48:10.683Z,4.07
2022-08-26T12:50:46.224Z,3.97
2022-08-26T12:53:12.955Z,4.45
2022-08-26T12:55:44.633Z,4.38
2022-08-26T12:58:14.516Z,4.40
2022-08-26T13:00:43.928Z,3.93
2022-08-26T13:03:35.482Z,4.20
2022-08-26T13:06:16.458Z,4.10
2022-08-26T13:08:49.423Z,3.70
2022-08-26T13:11:20.885Z,4.82
2022-08-26T13:13:53.307Z,3.42
2022-08-26T13:16:22.143Z,4.20
2022-08-26T13:18:53.010Z,4.22
2022-08-26T13:21:22.908Z,3.65
2022-08-26T13:23:50.506Z,3.60
2022-08-26T13:26:18.385Z,4.05
2022-08-26T13:28:45.447Z,4.07
2022-08-26T13:31:20.846Z,4.30
2022-08-26T13:33:53.775Z,4.45
2022-08-26T13:36:20.631Z,3.85
2022-08-26T13:38:48.297Z,4.57
2022-08-26T13:41:28.931Z,4.22
2022-08-26T13:43:56.851Z,4.00
2022-08-26T13:46:29.184Z,3.90
2022-08-26T13:48:57.597Z,3.70
2022-08-26T13:51:26.249Z,4.68
2022-08-26T13:53:53.431Z,3.90
2022-08-26T13:56:21.607Z,3.78
2022-08-26T13:58:49.578Z,4.43
2022-08-26T14:01:17.633Z,4.72
2022-08-26T14:03:45.195Z,4.38
2022-08-26T14:06:12.604Z,4.25
2022-08-26T14:08:40.256Z,3.72
2022-08-26T14:11:07.311Z,3.55
2022-08-26T14:13:34.741Z,4.70
2022-08-26T14:16:04.164Z,4.53
2022-08-26T14:18:41.803Z,4.45
2022-08-26T14:21:12.935Z,4.03
2022-08-26T14:23:40.378Z,4.70
2022-08-26T14:26:14.375Z,4.47
2022-08-26T14:28:59.093Z,4.13
2022-08-26T14:31:29.352Z,4.30
2022-08-26T14:33:59.661Z,5.32
2022-08-26T14:36:31.394Z,5.10
2022-08-26T14:39:02.081Z,4.85
2022-08-26T14:44:01.981Z,4.30
2022-08-26T14:46:31.792Z,3.75
2022-08-26T14:49:01.611Z,4.53
2022-08-26T14:51:29.339Z,4.05
2022-08-26T14:54:14.167Z,4.55
2022-08-26T14:57:02.431Z,3.80
2022-08-26T14:59:32.559Z,4.35
2022-08-26T15:02:00.926Z,4.28
2022-08-26T15:04:28.770Z,5.07
2022-08-26T15:06:57.492Z,4.65
2022-08-26T15:09:25.033Z,4.20
2022-08-26T15:11:53.234Z,4.60
2022-08-26T15:14:21.229Z,4.53
2022-08-26T15:16:49.855Z,4.03
2022-08-26T15:19:17.961Z,4.15
2022-08-26T15:21:45.770Z,3.58
2022-08-26T15:24:13.629Z,5.05
2022-08-26T15:26:41.024Z,3.92
2022-08-26T15:29:08.001Z,4.20
2022-08-26T15:31:35.705Z,4.85
2022-08-26T15:34:12.078Z,4.63
2022-08-26T15:36:44.943Z,4.40
2022-08-26T15:39:12.578Z,4.28
2022-08-26T15:41:39.888Z,4.05
2022-08-26T15:44:08.017Z,4.47
2022-08-26T15:46:37.535Z,4.40
2022-08-26T15:49:05.848Z,4.13
2022-08-26T15:51:45.538Z,4.63
2022-08-26T15:54:13.904Z,4.03
2022-08-26T15:56:40.780Z,4.07
2022-08-26T15:59:11.900Z,4.68
2022-08-26T16:01:39.565Z,4.10
2022-08-26T16:04:07.218Z,5.43
2022-08-26T16:06:37.319Z,4.63
2022-08-26T16:09:05.418Z,5.00
2022-08-26T16:11:33.446Z,4.03
2022-08-26T16:14:00.245Z,4.57
2022-08-26T16:16:27.180Z,4.38
2022-08-26T16:18:54.057Z,4.25
2022-08-26T16:21:28.101Z,4.95
2022-08-26T16:23:56.340Z,4.10
2022-08-26T16:26:29.440Z,4.57
2022-08-26T16:28:56.321Z,5.45
2022-08-26T16:31:23.192Z,5.40
2022-08-26T16:33:50.281Z,6.05
2022-08-26T16:36:17.629Z,4.00
2022-08-26T16:38:50.610Z,4.20
2022-08-26T16:41:17.822Z,4.55
2022-08-26T16:43:44.942Z,4.60
2022-08-26T16:46:14.383Z,5.47
2022-08-26T16:48:41.703Z,6.63
2022-08-26T16:51:17.984Z,4.53
2022-08-26T16:53:46.211Z,6.72
2022-08-26T16:56:15.236Z,5.28
2022-08-26T16:58:42.460Z,4.72
2022-08-26T17:01:09.635Z,5.22
2022-08-26T17:03:37.068Z,4.70
2022-08-26T17:06:03.976Z,5.05
2022-08-26T17:08:31.089Z,4.65
2022-08-26T17:11:01.051Z,5.07
2022-08-26T17:13:35.776Z,4.50
2022-08-26T17:16:05.284Z,4.85
2022-08-26T17:18:33.597Z,5.95
2022-08-26T17:21:07.120Z,5.30
2022-08-26T17:23:34.447Z,4.32
2022-08-26T17:26:01.359Z,4.97
2022-08-26T17:28:28.330Z,4.80
2022-08-26T17:30:58.017Z,5.05
2022-08-26T17:33:26.392Z,5.18
2022-08-26T17:35:53.403Z,5.20
2022-08-26T17:38:21.306Z,4.20
2022-08-26T17:40:48.351Z,4.95
2022-08-26T17:43:15.181Z,5.93
2022-08-26T17:45:42.336Z,4.93
2022-08-26T17:48:10.746Z,5.20
2022-08-26T17:50:40.359Z,4.68
2022-08-26T17:53:08.134Z,5.00
2022-08-26T17:55:41.803Z,5.60
2022-08-26T17:58:12.014Z,5.32
2022-08-26T18:00:45.017Z,4.72
2022-08-26T18:03:12.237Z,5.57
2022-08-26T18:05:39.154Z,5.13
2022-08-26T18:08:06.025Z,5.65
2022-08-26T18:10:33.051Z,5.20
2022-08-26T18:12:59.809Z,5.65
2022-08-26T18:15:26.601Z,6.07
2022-08-26T18:17:53.654Z,4.95
2022-08-26T18:20:20.748Z,5.50
2022-08-26T18:22:48.239Z,4.95
2022-08-26T18:25:17.539Z,5.85
2022-08-26T18:27:44.886Z,5.55
2022-08-26T18:30:16.780Z,6.03
2022-08-26T18:32:44.165Z,5.70
2022-08-26T18:35:12.322Z,5.30
2022-08-26T18:37:39.823Z,5.53
2022-08-26T18:40:09.332Z,5.45
2022-08-26T18:42:37.089Z,5.60
2022-08-26T18:45:06.320Z,5.55
2022-08-26T18:47:33.758Z,5.70
2022-08-26T18:50:02.498Z,6.07
2022-08-26T18:52:29.386Z,6.15
2022-08-26T18:54:56.323Z,5.78
2022-08-26T18:57:23.218Z,6.13
2022-08-26T18:59:50.396Z,7.10
2022-08-26T19:02:17.533Z,7.13
2022-08-26T19:04:44.467Z,8.30
2022-08-26T19:07:11.486Z,6.40
2022-08-26T19:09:38.626Z,6.90
2022-08-26T19:12:06.087Z,6.80
2022-08-26T19:14:36.022Z,6.97
2022-08-26T19:17:03.683Z,6.68
2022-08-26T19:19:32.215Z,6.20
2022-08-26T19:21:59.894Z,5.82
2022-08-26T19:24:28.450Z,6.57
2022-08-26T19:26:58.427Z,6.93
2022-08-26T19:29:28.876Z,6.00
2022-08-26T19:31:57.026Z,6.53
2022-08-26T19:34:25.037Z,5.97
2022-08-26T19:36:53.553Z,6.00
2022-08-26T19:39:21.784Z,6.03
2022-08-26T19:41:49.640Z,5.95
2022-08-26T19:44:38.618Z,5.70
2022-08-26T19:47:08.085Z,6.38
2022-08-26T19:49:35.828Z,5.82
2022-08-26T19:52:03.653Z,6.78
2022-08-26T19:54:31.155Z,6.25
2022-08-26T19:56:58.370Z,6.47
2022-08-26T19:59:25.473Z,6.22
2022-08-26T20:02:00.553Z,7.30
2022-08-26T20:04:29.816Z,7.28
2022-08-26T20:06:58.799Z,6.43
2022-08-26T20:09:33.138Z,7.20
2022-08-26T20:12:01.044Z,7.15
2022-08-26T20:14:29.972Z,7.95
2022-08-26T20:16:57.703Z,6.75
2022-08-26T20:19:43.465Z,7.63
2022-08-26T20:22:11.949Z,6.10
2022-08-26T20:24:39.507Z,6.70
2022-08-26T20:27:08.104Z,7.30
2022-08-26T20:29:36.375Z,7.13
2022-08-26T20:32:06.244Z,7.00
2022-08-26T20:34:34.008Z,8.50
2022-08-26T20:37:01.312Z,7.93
2022-08-26T20:39:31.531Z,7.55
2022-08-26T20:41:58.742Z,7.83
2022-08-26T20:44:25.886Z,6.50
2022-08-26T20:46:53.248Z,6.55
2022-08-26T20:49:20.288Z,7.38
2022-08-26T20:51:52.741Z,7.25
2022-08-26T20:54:24.996Z,8.07
2022-08-26T20:56:54.080Z,8.75
2022-08-26T20:59:22.104Z,7.72
2022-08-26T21:01:49.496Z,6.85
2022-08-26T21:04:19.698Z,8.68
2022-08-26T21:06:47.259Z,7.07
2022-08-26T21:09:22.156Z,7.80
2022-08-26T21:11:50.228Z,7.60
2022-08-26T21:14:17.533Z,7.07
2022-08-26T21:16:45.851Z,7.43
2022-08-26T21:19:15.745Z,7.88
2022-08-26T21:21:42.760Z,7.82
2022-08-26T21:24:09.665Z,7.07
2022-08-26T21:26:37.009Z,8.45
2022-08-26T21:29:05.147Z,6.78
2022-08-26T21:31:32.354Z,7.55
2022-08-26T21:34:00.157Z,8.70
2022-08-26T21:36:27.253Z,8.32
2022-08-26T21:38:58.550Z,7.93
2022-08-26T21:41:26.534Z,7.90
2022-08-26T21:43:59.162Z,7.97
2022-08-26T21:46:29.407Z,7.75
2022-08-26T21:49:07.024Z,8.60
2022-08-26T21:51:37.087Z,7.35
2022-08-26T21:54:10.482Z,8.27
2022-08-26T21:56:44.740Z,7.78
2022-08-26T21:59:12.633Z,7.03
2022-08-26T22:01:39.608Z,8.60
2022-08-26T22:04:09.077Z,7.70
2022-08-26T22:06:42.974Z,7.70
2022-08-26T22:09:10.749Z,7.50
2022-08-26T22:11:37.751Z,7.20
2022-08-26T22:14:05.168Z,7.82
2022-08-26T22:16:32.090Z,7.22
2022-08-26T22:18:58.938Z,7.85
2022-08-26T22:21:30.719Z,8.32
2022-08-26T22:23:58.900Z,7.28
2022-08-26T22:26:30.044Z,8.02
2022-08-26T22:31:37.779Z,7.80
2022-08-26T22:34:11.145Z,8.55
2022-08-26T22:36:43.842Z,8.20
2022-08-26T22:39:13.122Z,7.82
2022-08-26T22:41:40.271Z,7.50
2022-08-26T22:44:07.700Z,8.00
2022-08-26T22:46:36.916Z,7.60
2022-08-26T22:49:05.010Z,7.82
2022-08-26T22:51:32.187Z,7.90
2022-08-26T22:53:59.411Z,8.13
2022-08-26T22:56:26.412Z,8.07
2022-08-26T22:58:53.306Z,8.55
2022-08-26T23:01:20.213Z,7.60
2022-08-26T23:03:47.146Z,8.25
2022-08-26T23:06:14.416Z,8.05
2022-08-26T23:08:42.192Z,8.07
2022-08-26T23:11:11.078Z,7.85
2022-08-26T23:13:38.520Z,8.48
2022-08-26T23:16:09.363Z,8.32
2022-08-26T23:18:36.770Z,8.35
2022-08-26T23:21:03.688Z,8.18
2022-08-26T23:23:31.316Z,8.73
2022-08-26T23:25:58.690Z,7.97
2022-08-26T23:28:26.631Z,8.45
2022-08-26T23:30:54.037Z,8.35
2022-08-26T23:33:21.421Z,7.93
2022-08-26T23:35:48.348Z,8.32
2022-08-26T23:38:16.691Z,8.35
2022-08-26T23:40:43.484Z,9.43
2022-08-26T23:43:11.708Z,8.95
2022-08-26T23:45:39.273Z,8.45
2022-08-26T23:48:06.945Z,8.32
2022-08-26T23:50:52.761Z,8.45
2022-08-26T23:53:21.926Z,9.13
2022-08-26T23:55:52.684Z,9.25
2022-08-26T23:58:21.340Z,9.73
